Terminal Aerodrome Forecast
Issued by NWS

Home | Current Version | Previous Version | Text Only | Print | Product List | Glossary On
Versions: 1 2 3 4 5 6 7 8 9 10 11 12
000
FTUS45 KTFX 061700
TAFHVR
TAF
KHVR 061720Z 0618/0718 23015KT P6SM SKC
     FM062000 26018G26KT P6SM SCT080 BKN150
     FM070300 26007KT P6SM BKN120
     FM071300 28009KT P6SM BKN080=

USA.gov is the U.S. government's official web portal to all federal, state and local government web resources and services.